createdAt,value
2023-04-02T00:00:20.470Z,94783.81
2023-04-02T00:03:03.744Z,94783.81
2023-04-02T00:05:55.899Z,94785.16
2023-04-02T00:08:30.959Z,94785.38
2023-04-02T00:11:03.317Z,94781.13
2023-04-02T00:13:37.677Z,94789.69
2023-04-02T00:16:13.443Z,94787.00
2023-04-02T00:18:49.822Z,94788.59
2023-04-02T00:21:25.913Z,94787.00
2023-04-02T00:23:58.090Z,94786.72
2023-04-02T00:26:36.877Z,94796.38
2023-04-02T00:29:08.799Z,94792.91
2023-04-02T00:31:43.184Z,94792.88
2023-04-02T00:34:21.726Z,94806.25
2023-04-02T00:36:52.003Z,94812.16
2023-04-02T00:39:25.923Z,94805.19
2023-04-02T00:42:05.129Z,94811.09
2023-04-02T00:44:42.775Z,94807.06
2023-04-02T00:47:20.502Z,94806.81
2023-04-02T00:49:58.606Z,94812.94
2023-04-02T00:52:52.447Z,94803.59
2023-04-02T00:55:26.770Z,94812.16
2023-04-02T00:57:59.554Z,94809.72
2023-04-02T01:00:34.067Z,94811.03
2023-04-02T01:03:38.898Z,94807.84
2023-04-02T01:06:12.847Z,94817.75
2023-04-02T01:09:01.681Z,94812.66
2023-04-02T01:12:30.129Z,94816.91
2023-04-02T01:15:13.291Z,94803.28
2023-04-02T01:18:18.169Z,94823.63
2023-04-02T01:21:21.825Z,94818.00
2023-04-02T01:24:04.019Z,94817.72
2023-04-02T01:26:49.247Z,94811.59
2023-04-02T01:29:29.826Z,94808.66
2023-04-02T01:32:03.707Z,94812.91
2023-04-02T01:34:34.454Z,94819.88
2023-04-02T01:37:24.592Z,94818.53
2023-04-02T01:40:18.222Z,94817.47
2023-04-02T01:42:57.874Z,94815.84
2023-04-02T01:45:29.517Z,94818.53
2023-04-02T01:47:59.675Z,94809.97
2023-04-02T01:50:37.996Z,94820.41
2023-04-02T01:53:11.912Z,94819.59
2023-04-02T01:55:45.924Z,94813.19
2023-04-02T01:58:20.609Z,94823.06
2023-04-02T02:00:57.173Z,94830.56
2023-04-02T02:03:27.617Z,94828.97
2023-04-02T02:05:58.353Z,94830.28
2023-04-02T02:08:41.716Z,94843.94
2023-04-02T02:11:20.216Z,94842.59
2023-04-02T02:13:55.814Z,94843.97
2023-04-02T02:16:28.809Z,94851.16
2023-04-02T02:19:03.735Z,94849.56
2023-04-02T02:21:43.217Z,94851.16
2023-04-02T02:24:22.307Z,94851.69
2023-04-02T02:27:05.189Z,94862.94
2023-04-02T02:29:39.790Z,94851.44
2023-04-02T02:32:13.983Z,94852.75
2023-04-02T02:34:53.699Z,94857.53
2023-04-02T02:37:30.725Z,94855.69
2023-04-02T02:40:05.489Z,94859.97
2023-04-02T02:42:40.046Z,94862.09
2023-04-02T02:45:19.527Z,94859.91
2023-04-02T02:47:54.052Z,94860.75
2023-04-02T02:50:30.769Z,94872.75
2023-04-02T02:53:18.098Z,94875.97
2023-04-02T02:55:50.771Z,94883.44
2023-04-02T02:58:31.352Z,94873.81
2023-04-02T03:01:20.479Z,94879.94
2023-04-02T03:03:55.596Z,94881.56
2023-04-02T03:06:27.298Z,94880.22
2023-04-02T03:09:14.046Z,94888.78
2023-04-02T03:11:53.537Z,94890.66
2023-04-02T03:14:35.078Z,94893.31
2023-04-02T03:17:14.776Z,94900.50
2023-04-02T03:19:53.601Z,94893.84
2023-04-02T03:22:32.041Z,94895.69
2023-04-02T03:25:07.241Z,94908.53
2023-04-02T03:27:44.762Z,94913.91
2023-04-02T03:30:38.517Z,94908.28
2023-04-02T03:33:17.353Z,94915.19
2023-04-02T03:35:59.395Z,94914.88
2023-04-02T03:38:33.940Z,94917.84
2023-04-02T03:41:12.821Z,94923.75
2023-04-02T03:43:48.143Z,94929.09
2023-04-02T03:46:28.638Z,94923.69
2023-04-02T03:49:03.597Z,94920.53
2023-04-02T03:51:39.082Z,94923.22
2023-04-02T03:54:16.082Z,94925.09
2023-04-02T03:56:47.490Z,94920.03
2023-04-02T03:59:36.740Z,94918.66
2023-04-02T04:02:28.920Z,94929.34
2023-04-02T04:04:59.204Z,94937.06
2023-04-02T04:07:38.131Z,94939.47
2023-04-02T04:10:09.808Z,94935.69
2023-04-02T04:12:47.357Z,94942.34
2023-04-02T04:15:28.127Z,94937.22
2023-04-02T04:18:10.446Z,94940.94
2023-04-02T04:20:56.276Z,94952.94
2023-04-02T04:23:35.963Z,94970.47
2023-04-02T04:26:21.066Z,94967.19
2023-04-02T04:29:09.707Z,94971.47
2023-04-02T04:31:49.540Z,94969.91
2023-04-02T04:34:26.485Z,94969.38
2023-04-02T04:37:01.825Z,94973.38
2023-04-02T04:39:45.445Z,94979.00
2023-04-02T04:42:21.794Z,94982.41
2023-04-02T04:45:01.938Z,94984.84
2023-04-02T04:47:36.952Z,94988.09
2023-04-02T04:50:15.474Z,94978.50
2023-04-02T04:52:45.517Z,94998.56
2023-04-02T04:55:31.213Z,94999.06
2023-04-02T04:58:16.748Z,94994.75
2023-04-02T05:01:01.827Z,95000.66
2023-04-02T05:03:38.569Z,94997.97
2023-04-02T05:06:19.376Z,95002.22
2023-04-02T05:08:52.878Z,95003.56
2023-04-02T05:11:33.550Z,95001.16
2023-04-02T05:14:17.832Z,95013.72
2023-04-02T05:16:55.823Z,95011.47
2023-04-02T05:19:35.632Z,95015.69
2023-04-02T05:22:21.856Z,95023.94
2023-04-02T05:25:02.550Z,95027.38
2023-04-02T05:27:42.931Z,95037.56
2023-04-02T05:30:46.792Z,95039.09
2023-04-02T05:33:28.148Z,95038.84
2023-04-02T05:36:05.124Z,95039.09
2023-04-02T05:38:47.590Z,95038.28
2023-04-02T05:41:28.344Z,95044.69
2023-04-02T05:44:09.678Z,95041.22
2023-04-02T05:46:51.575Z,95050.91
2023-04-02T05:49:30.075Z,95047.19
2023-04-02T05:52:05.241Z,95049.19
2023-04-02T05:54:46.199Z,95051.59
2023-04-02T05:57:35.829Z,95056.19
2023-04-02T06:00:22.085Z,95060.19
2023-04-02T06:03:01.935Z,95061.56
2023-04-02T06:05:40.875Z,95062.41
2023-04-02T06:08:16.970Z,95069.38
2023-04-02T06:10:54.566Z,95065.44
2023-04-02T06:13:28.950Z,95075.81
2023-04-02T06:16:00.742Z,95079.09
2023-04-02T06:18:36.679Z,95077.03
2023-04-02T06:21:07.270Z,95079.97
2023-04-02T06:23:44.215Z,95084.00
2023-04-02T06:26:23.611Z,95088.03
2023-04-02T06:29:02.341Z,95090.22
2023-04-02T06:31:42.145Z,95089.97
2023-04-02T06:34:19.143Z,95091.31
2023-04-02T06:37:00.663Z,95088.91
2023-04-02T06:39:32.106Z,95092.22
2023-04-02T06:42:13.229Z,95103.75
2023-04-02T06:44:59.939Z,95098.69
2023-04-02T06:47:50.413Z,95104.53
2023-04-02T06:50:42.663Z,95110.19
2023-04-02T06:53:24.473Z,95111.25
2023-04-02T06:56:02.196Z,95117.91
2023-04-02T06:58:33.776Z,95119.06
2023-04-02T07:01:04.340Z,95120.69
2023-04-02T07:03:46.701Z,95121.81
2023-04-02T07:06:25.256Z,95127.19
2023-04-02T07:08:57.155Z,95130.16
2023-04-02T07:11:27.703Z,95132.16
2023-04-02T07:14:00.640Z,95130.59
2023-04-02T07:16:34.337Z,95137.84
2023-04-02T07:19:05.603Z,95141.09
2023-04-02T07:21:37.796Z,95145.13
2023-04-02T07:24:09.076Z,95149.16
2023-04-02T07:26:39.001Z,95144.63
2023-04-02T07:29:09.686Z,95146.22
2023-04-02T07:31:40.782Z,95146.53
2023-04-02T07:34:11.992Z,95152.72
2023-04-02T07:36:41.802Z,95152.50
2023-04-02T07:39:12.200Z,95151.22
2023-04-02T07:41:57.387Z,95149.31
2023-04-02T07:44:26.932Z,95153.59
2023-04-02T07:46:56.869Z,95161.66
2023-04-02T07:49:27.683Z,95168.13
2023-04-02T07:51:57.110Z,95168.66
2023-04-02T07:54:27.214Z,95169.78
2023-04-02T07:56:56.679Z,95170.81
2023-04-02T07:59:26.225Z,95180.47
2023-04-02T08:01:55.715Z,95188.25
2023-04-02T08:04:26.776Z,95186.66
2023-04-02T08:06:56.155Z,95191.47
2023-04-02T08:09:25.617Z,95191.50
2023-04-02T08:11:55.029Z,95188.56
2023-04-02T08:14:24.414Z,95196.31
2023-04-02T08:16:56.549Z,95193.13
2023-04-02T08:19:28.196Z,95195.84
2023-04-02T08:21:57.745Z,95204.47
2023-04-02T08:24:27.146Z,95200.19
2023-04-02T08:26:56.608Z,95200.50
2023-04-02T08:29:29.165Z,95207.44
2023-04-02T08:31:58.679Z,95209.88
2023-04-02T08:34:30.575Z,95219.53
2023-04-02T08:37:00.621Z,95220.44
2023-04-02T08:39:33.143Z,95222.06
2023-04-02T08:42:17.950Z,95216.41
2023-04-02T08:45:21.155Z,95210.28
2023-04-02T08:47:56.669Z,95226.94
2023-04-02T08:50:33.535Z,95218.34
2023-04-02T08:53:08.006Z,95229.63
2023-04-02T08:55:44.296Z,95226.16
2023-04-02T08:58:30.755Z,95233.94
2023-04-02T09:01:04.915Z,95236.34
2023-04-02T09:03:41.431Z,95231.25
2023-04-02T09:06:18.545Z,95236.63
2023-04-02T09:08:52.160Z,95240.09
2023-04-02T09:11:29.157Z,95235.81
2023-04-02T09:14:01.960Z,95232.88
2023-04-02T09:16:45.845Z,95229.91
2023-04-02T09:19:23.620Z,95239.03
2023-04-02T09:22:20.780Z,95237.44
2023-04-02T09:24:53.798Z,95244.69
2023-04-02T09:27:27.016Z,95246.56
2023-04-02T09:30:02.147Z,95254.63
2023-04-02T09:32:51.105Z,95256.75
2023-04-02T09:35:26.818Z,95258.09
2023-04-02T09:38:22.586Z,95256.22
2023-04-02T09:41:02.148Z,95260.22
2023-04-02T09:43:33.478Z,95260.50
2023-04-02T09:46:19.243Z,95259.16
2023-04-02T09:48:58.174Z,95269.63
2023-04-02T09:51:34.736Z,95267.69
2023-04-02T09:54:16.299Z,95265.75
2023-04-02T09:57:02.906Z,95270.59
2023-04-02T09:59:32.355Z,95267.91
2023-04-02T10:02:04.931Z,95279.94
2023-04-02T10:04:44.102Z,95269.72
2023-04-02T10:07:35.432Z,95272.13
2023-04-02T10:10:23.488Z,95275.72
2023-04-02T10:13:02.551Z,95277.06
2023-04-02T10:15:39.030Z,95272.47
2023-04-02T10:18:20.823Z,95282.72
2023-04-02T10:20:53.929Z,95283.25
2023-04-02T10:23:26.054Z,95290.50
2023-04-02T10:26:13.422Z,95282.44
2023-04-02T10:29:09.383Z,95281.63
2023-04-02T10:31:53.457Z,95291.84
2023-04-02T10:34:31.971Z,95287.03
2023-04-02T10:37:21.757Z,95286.78
2023-04-02T10:39:58.171Z,95287.84
2023-04-02T10:42:38.775Z,95290.28
2023-04-02T10:45:29.245Z,95292.97
2023-04-02T10:48:09.445Z,95291.66
2023-04-02T10:50:51.702Z,95304.53
2023-04-02T10:53:26.119Z,95300.75
2023-04-02T10:56:03.545Z,95302.06
2023-04-02T10:58:42.592Z,95305.56
2023-04-02T11:01:20.997Z,95306.03
2023-04-02T11:03:57.892Z,95298.19
2023-04-02T11:06:34.055Z,95294.56
2023-04-02T11:09:08.760Z,95302.53
2023-04-02T11:11:44.402Z,95296.22
2023-04-02T11:14:19.908Z,95308.31
2023-04-02T11:16:51.442Z,95298.69
2023-04-02T11:19:29.407Z,95302.34
2023-04-02T11:22:01.497Z,95314.03
2023-04-02T11:24:45.362Z,95312.22
2023-04-02T11:27:28.363Z,95304.78
2023-04-02T11:30:08.933Z,95317.97
2023-04-02T11:32:42.648Z,95312.06
2023-04-02T11:35:38.457Z,95318.44
2023-04-02T11:38:53.026Z,95315.59
2023-04-02T11:42:06.158Z,95326.34
2023-04-02T11:44:35.843Z,95328.69
2023-04-02T11:47:22.078Z,95323.41
2023-04-02T11:50:02.619Z,95322.84
2023-04-02T11:52:52.092Z,95328.28
2023-04-02T11:55:28.104Z,95319.56
2023-04-02T11:58:33.635Z,95326.00
2023-04-02T12:01:43.961Z,95331.22
2023-04-02T12:04:44.445Z,95321.03
2023-04-02T12:08:05.649Z,95324.75
2023-04-02T12:10:53.869Z,95332.19
2023-04-02T12:13:51.473Z,95333.13
2023-04-02T12:16:22.968Z,95337.63
2023-04-02T12:18:55.091Z,95338.16
2023-04-02T12:21:29.969Z,95341.81
2023-04-02T12:24:00.691Z,95337.75
2023-04-02T12:26:37.674Z,95335.03
2023-04-02T12:29:36.271Z,95343.97
2023-04-02T12:32:21.191Z,95340.47
2023-04-02T12:34:52.739Z,95348.44
2023-04-02T12:37:28.105Z,95346.34
2023-04-02T12:40:01.147Z,95346.00
2023-04-02T12:42:34.986Z,95347.25
2023-04-02T12:45:08.832Z,95349.22
2023-04-02T12:47:38.322Z,95349.72
2023-04-02T12:50:15.749Z,95353.94
2023-04-02T12:52:49.311Z,95347.53
2023-04-02T12:55:24.324Z,95351.16
2023-04-02T12:57:58.121Z,95345.97
2023-04-02T13:00:37.077Z,95352.44
2023-04-02T13:03:22.478Z,95341.69
2023-04-02T13:05:56.424Z,95349.84
2023-04-02T13:08:33.139Z,95356.09
2023-04-02T13:11:05.331Z,95354.53
2023-04-02T13:13:38.070Z,95357.91
2023-04-02T13:16:30.830Z,95363.41
2023-04-02T13:19:26.372Z,95365.72
2023-04-02T13:21:58.711Z,95370.19
2023-04-02T13:24:32.613Z,95370.56
2023-04-02T13:27:04.615Z,95369.16
2023-04-02T13:29:36.085Z,95374.63
2023-04-02T13:32:11.440Z,95366.56
2023-04-02T13:34:40.864Z,95368.50
2023-04-02T13:37:13.202Z,95373.63
2023-04-02T13:39:44.062Z,95379.81
2023-04-02T13:42:13.876Z,95384.66
2023-04-02T13:44:43.401Z,95391.34
2023-04-02T13:47:16.226Z,95392.44
2023-04-02T13:49:45.639Z,95389.47
2023-04-02T13:52:17.155Z,95397.28
2023-04-02T13:54:50.788Z,95404.25
2023-04-02T13:57:20.595Z,95401.81
2023-04-02T13:59:50.156Z,95402.09
2023-04-02T14:02:23.461Z,95402.34
2023-04-02T14:05:04.999Z,95410.41
2023-04-02T14:07:53.013Z,95413.59
2023-04-02T14:10:43.859Z,95409.78
2023-04-02T14:13:40.164Z,95413.25
2023-04-02T14:16:28.977Z,95415.38
2023-04-02T14:19:28.180Z,95421.00
2023-04-02T14:22:13.350Z,95418.03
2023-04-02T14:24:54.700Z,95421.00
2023-04-02T14:27:40.483Z,95419.41
2023-04-02T14:30:23.704Z,95424.78
2023-04-02T14:33:05.614Z,95429.09
2023-04-02T14:35:39.350Z,95432.84
2023-04-02T14:38:18.816Z,95443.31
2023-04-02T14:40:51.872Z,95447.00
2023-04-02T14:43:29.194Z,95447.72
2023-04-02T14:46:02.695Z,95452.50
2023-04-02T14:48:47.446Z,95450.88
2023-04-02T14:51:26.409Z,95458.63
2023-04-02T14:54:07.184Z,95462.09
2023-04-02T14:56:46.940Z,95459.69
2023-04-02T14:59:30.829Z,95460.28
2023-04-02T15:02:08.819Z,95456.22
2023-04-02T15:04:44.586Z,95468.06
2023-04-02T15:07:23.643Z,95466.16
2023-04-02T15:10:12.390Z,95469.09
2023-04-02T15:12:45.061Z,95471.47
2023-04-02T15:15:40.029Z,95472.28
2023-04-02T15:18:18.115Z,95472.53
2023-04-02T15:21:00.598Z,95478.41
2023-04-02T15:23:52.630Z,95475.44
2023-04-02T15:26:30.959Z,95477.31
2023-04-02T15:29:27.744Z,95489.38
2023-04-02T15:32:19.243Z,95492.31
2023-04-02T15:34:57.256Z,95498.19
2023-04-02T15:37:34.732Z,95502.19
2023-04-02T15:40:26.214Z,95504.06
2023-04-02T15:43:07.894Z,95505.09
2023-04-02T15:45:57.197Z,95506.63
2023-04-02T15:49:11.483Z,95507.69
2023-04-02T15:52:05.473Z,95519.97
2023-04-02T15:55:09.712Z,95519.66
2023-04-02T15:58:25.703Z,95519.50
2023-04-02T16:01:09.620Z,95533.34
2023-04-02T16:04:09.900Z,95541.81
2023-04-02T16:07:09.186Z,95547.09
2023-04-02T16:09:51.543Z,95554.97
2023-04-02T16:12:22.678Z,95555.66
2023-04-02T16:14:52.156Z,95558.97
2023-04-02T16:17:32.212Z,95569.28
2023-04-02T16:20:19.986Z,95579.44
2023-04-02T16:23:00.807Z,95573.72
2023-04-02T16:25:41.175Z,95581.69
2023-04-02T16:28:23.909Z,95580.78
2023-04-02T16:31:04.066Z,95581.59
2023-04-02T16:34:00.243Z,95588.50
2023-04-02T16:36:52.906Z,95589.22
2023-04-02T16:39:37.346Z,95593.75
2023-04-02T16:42:24.314Z,95595.88
2023-04-02T16:45:14.479Z,95597.75
2023-04-02T16:48:06.025Z,95606.56
2023-04-02T16:50:52.311Z,95607.94
2023-04-02T16:53:41.352Z,95612.72
2023-04-02T16:56:51.465Z,95617.28
2023-04-02T16:59:32.834Z,95618.56
2023-04-02T17:02:18.546Z,95623.06
2023-04-02T17:05:00.439Z,95623.22
2023-04-02T17:07:41.668Z,95636.09
2023-04-02T17:10:31.585Z,95629.94
2023-04-02T17:13:19.224Z,95632.28
2023-04-02T17:15:56.638Z,95640.47
2023-04-02T17:18:26.517Z,95642.81
2023-04-02T17:21:00.023Z,95654.81
2023-04-02T17:23:30.868Z,95654.41
2023-04-02T17:26:08.796Z,95656.19
2023-04-02T17:28:40.256Z,95662.25
2023-04-02T17:31:18.379Z,95664.59
2023-04-02T17:33:47.912Z,95671.78
2023-04-02T17:36:39.247Z,95676.81
2023-04-02T17:39:23.386Z,95678.03
2023-04-02T17:42:05.886Z,95683.59
2023-04-02T17:45:04.022Z,95692.56
2023-04-02T17:47:48.722Z,95693.03
2023-04-02T17:50:58.556Z,95695.38
2023-04-02T17:53:41.002Z,95706.78
2023-04-02T17:56:43.064Z,95715.41
2023-04-02T17:59:39.736Z,95718.22
2023-04-02T18:02:43.206Z,95729.47
2023-04-02T18:05:26.797Z,95739.81
2023-04-02T18:08:06.939Z,95744.34
2023-04-02T18:10:48.315Z,95750.88
2023-04-02T18:13:34.858Z,95754.13
2023-04-02T18:16:37.786Z,95757.13
2023-04-02T18:19:19.405Z,95767.13
2023-04-02T18:21:59.740Z,95772.09
2023-04-02T18:24:46.491Z,95769.44
2023-04-02T18:27:41.612Z,95777.06
2023-04-02T18:30:23.624Z,95791.47
2023-04-02T18:33:29.696Z,95799.31
2023-04-02T18:36:11.572Z,95801.06
2023-04-02T18:38:49.058Z,95811.50
2023-04-02T18:41:47.283Z,95804.53
2023-04-02T18:44:41.068Z,95806.84
2023-04-02T18:47:17.059Z,95809.16
2023-04-02T18:49:57.404Z,95819.25
2023-04-02T18:52:27.062Z,95828.75
2023-04-02T18:55:06.153Z,95827.22
2023-04-02T18:57:40.337Z,95832.19
2023-04-02T19:00:27.171Z,95832.84
2023-04-02T19:03:03.701Z,95847.06
2023-04-02T19:05:44.641Z,95852.81
2023-04-02T19:08:21.631Z,95851.78
2023-04-02T19:10:58.966Z,95852.66
2023-04-02T19:13:28.640Z,95859.47
2023-04-02T19:16:39.119Z,95866.28
2023-04-02T19:19:20.333Z,95861.88
2023-04-02T19:22:11.975Z,95867.06
2023-04-02T19:25:31.275Z,95877.72
2023-04-02T19:28:14.165Z,95878.38
2023-04-02T19:31:35.682Z,95888.88
2023-04-02T19:34:20.660Z,95894.19
2023-04-02T19:36:57.042Z,95896.72
2023-04-02T19:40:24.452Z,95901.91
2023-04-02T19:42:55.332Z,95903.81
2023-04-02T19:45:38.631Z,95913.44
2023-04-02T19:48:15.943Z,95914.69
2023-04-02T19:50:46.063Z,95915.13
2023-04-02T19:53:18.186Z,95926.94
2023-04-02T19:55:48.128Z,95919.00
2023-04-02T19:58:28.253Z,95931.72
2023-04-02T20:00:58.183Z,95931.38
2023-04-02T20:03:28.016Z,95942.31
2023-04-02T20:05:59.404Z,95941.50
2023-04-02T20:08:31.213Z,95946.44
2023-04-02T20:11:01.592Z,95947.88
2023-04-02T20:13:31.100Z,95954.28
2023-04-02T20:16:01.696Z,95951.22
2023-04-02T20:18:31.995Z,95950.84
2023-04-02T20:21:06.595Z,95950.22
2023-04-02T20:23:38.229Z,95966.41
2023-04-02T20:26:08.768Z,95966.66
2023-04-02T20:28:38.290Z,95975.25
2023-04-02T20:31:11.704Z,95973.03
2023-04-02T20:33:42.017Z,95985.53
2023-04-02T20:36:14.632Z,95986.16
2023-04-02T20:38:46.446Z,95986.38
2023-04-02T20:41:16.591Z,95990.47
2023-04-02T20:43:46.372Z,95994.00
2023-04-02T20:46:15.959Z,95999.31
2023-04-02T20:48:45.703Z,95999.31
2023-04-02T20:51:17.348Z,96008.97
2023-04-02T20:53:48.297Z,96006.94
2023-04-02T20:56:19.515Z,96015.94
2023-04-02T20:58:48.887Z,96021.09
2023-04-02T21:01:22.096Z,96024.56
2023-04-02T21:03:55.398Z,96031.53
2023-04-02T21:06:28.250Z,96029.69
2023-04-02T21:08:59.455Z,96032.34
2023-04-02T21:11:29.029Z,96039.72
2023-04-02T21:13:58.497Z,96058.13
2023-04-02T21:16:31.756Z,96050.16
2023-04-02T21:19:04.949Z,96056.31
2023-04-02T21:21:35.739Z,96057.34
2023-04-02T21:24:10.019Z,96060.19
2023-04-02T21:26:41.929Z,96055.91
2023-04-02T21:29:13.405Z,96062.03
2023-04-02T21:31:44.111Z,96062.22
2023-04-02T21:34:17.743Z,96066.94
2023-04-02T21:36:50.355Z,96069.38
2023-04-02T21:39:24.179Z,96072.66
2023-04-02T21:41:54.857Z,96065.72
2023-04-02T21:44:25.205Z,96070.19
2023-04-02T21:46:54.985Z,96070.19
2023-04-02T21:49:26.078Z,96070.41
2023-04-02T21:51:55.801Z,96072.66
2023-04-02T21:54:26.673Z,96079.00
2023-04-02T21:56:56.133Z,96075.53
2023-04-02T21:59:25.885Z,96083.28
2023-04-02T22:01:55.468Z,96083.50
2023-04-02T22:04:28.272Z,96090.66
2023-04-02T22:06:57.714Z,96092.28
2023-04-02T22:09:29.563Z,96093.50
2023-04-02T22:11:59.962Z,96093.50
2023-04-02T22:14:30.712Z,96093.50
2023-04-02T22:17:00.511Z,96101.06
2023-04-02T22:19:30.045Z,96101.84
2023-04-02T22:21:59.481Z,96100.25
2023-04-02T22:24:30.559Z,96110.06
2023-04-02T22:27:00.017Z,96109.25
2023-04-02T22:29:29.487Z,96109.03
2023-04-02T22:31:58.904Z,96115.13
2023-04-02T22:34:28.883Z,96119.44
2023-04-02T22:36:58.363Z,96118.59
2023-04-02T22:39:29.221Z,96118.44
2023-04-02T22:41:58.654Z,96114.75
2023-04-02T22:44:28.074Z,96115.56
2023-04-02T22:46:57.456Z,96123.31
2023-04-02T22:49:26.833Z,96124.72
2023-04-02T22:51:56.207Z,96135.13
2023-04-02T22:54:25.687Z,96126.53
2023-04-02T22:56:56.550Z,96120.84
2023-04-02T22:59:25.949Z,96121.25
2023-04-02T23:01:55.479Z,96122.69
2023-04-02T23:04:25.062Z,96127.19
2023-04-02T23:06:54.508Z,96115.94
2023-04-02T23:09:23.917Z,96121.03
2023-04-02T23:11:53.404Z,96125.72
2023-04-02T23:14:24.222Z,96130.41
2023-04-02T23:16:53.631Z,96130.81
2023-04-02T23:19:23.010Z,96125.50
2023-04-02T23:21:52.587Z,96128.16
2023-04-02T23:24:22.007Z,96121.59
2023-04-02T23:26:51.436Z,96127.50
2023-04-02T23:29:20.886Z,96126.91
2023-04-02T23:31:51.949Z,96128.75
2023-04-02T23:34:21.514Z,96136.47
2023-04-02T23:36:50.929Z,96134.66
2023-04-02T23:39:20.580Z,96126.50
2023-04-02T23:41:49.988Z,96127.31
2023-04-02T23:44:19.432Z,96125.66
2023-04-02T23:46:48.876Z,96123.66
2023-04-02T23:49:20.277Z,96116.50
2023-04-02T23:51:49.799Z,96121.19
2023-04-02T23:54:19.209Z,96123.84
2023-04-02T23:56:48.988Z,96125.66
2023-04-02T23:59:18.532Z,96119.13
